createdAt,value
2022-11-05T00:01:24.634Z,7.43
2022-11-05T00:04:46.877Z,8.32
2022-11-05T00:08:10.651Z,9.32
2022-11-05T00:11:17.885Z,8.13
2022-11-05T00:14:39.524Z,7.68
2022-11-05T00:17:42.600Z,8.60
2022-11-05T00:20:44.640Z,8.77
2022-11-05T00:24:05.510Z,7.75
2022-11-05T00:27:08.174Z,8.02
2022-11-05T00:30:12.518Z,7.93
2022-11-05T00:33:16.092Z,8.30
2022-11-05T00:36:32.294Z,7.78
2022-11-05T00:39:34.570Z,7.78
2022-11-05T00:42:55.487Z,8.38
2022-11-05T00:45:57.926Z,7.40
2022-11-05T00:49:19.753Z,7.75
2022-11-05T00:52:41.169Z,7.35
2022-11-05T00:55:46.575Z,7.55
2022-11-05T00:58:50.115Z,7.03
2022-11-05T01:01:53.710Z,6.70
2022-11-05T01:04:55.751Z,7.18
2022-11-05T01:07:58.696Z,6.05
2022-11-05T01:11:00.938Z,7.53
2022-11-05T01:14:08.667Z,7.05
2022-11-05T01:17:10.731Z,6.53
2022-11-05T01:20:12.943Z,6.93
2022-11-05T01:23:15.468Z,7.03
2022-11-05T01:26:17.884Z,6.53
2022-11-05T01:29:20.077Z,7.07
2022-11-05T01:32:22.236Z,7.57
2022-11-05T01:35:24.287Z,7.70
2022-11-05T01:38:26.473Z,6.95
2022-11-05T01:41:28.535Z,6.45
2022-11-05T01:44:56.802Z,7.20
2022-11-05T01:48:05.878Z,6.55
2022-11-05T01:51:14.709Z,7.00
2022-11-05T01:54:20.983Z,8.02
2022-11-05T01:57:23.192Z,7.82
2022-11-05T02:00:25.267Z,7.85
2022-11-05T02:03:28.582Z,8.60
2022-11-05T02:06:38.045Z,7.25
2022-11-05T02:09:52.379Z,9.10
2022-11-05T02:12:54.907Z,9.48
2022-11-05T02:16:12.902Z,7.63
2022-11-05T02:19:53.843Z,7.70
2022-11-05T02:23:49.241Z,9.00
2022-11-05T02:27:19.210Z,7.53
2022-11-05T02:31:07.519Z,9.35
2022-11-05T02:34:44.268Z,8.25
2022-11-05T02:37:54.460Z,9.60
2022-11-05T02:41:06.827Z,7.75
2022-11-05T02:44:19.763Z,7.40
2022-11-05T02:48:12.907Z,7.40
2022-11-05T02:51:26.897Z,7.47
2022-11-05T02:54:43.664Z,7.82
2022-11-05T02:57:47.728Z,6.65
2022-11-05T03:00:57.106Z,7.05
2022-11-05T03:04:06.519Z,7.25
2022-11-05T03:07:36.569Z,6.13
2022-11-05T03:11:01.467Z,7.35
2022-11-05T03:14:15.274Z,6.90
2022-11-05T03:17:35.421Z,6.15
2022-11-05T03:21:02.261Z,7.22
2022-11-05T03:24:13.576Z,6.13
2022-11-05T03:27:20.138Z,6.80
2022-11-05T03:30:22.513Z,6.68
2022-11-05T03:33:29.755Z,6.53
2022-11-05T03:36:39.753Z,7.03
2022-11-05T03:39:52.251Z,6.72
2022-11-05T03:42:58.134Z,7.75
2022-11-05T03:46:05.672Z,6.65
2022-11-05T03:49:16.033Z,6.65
2022-11-05T03:52:22.086Z,6.95
2022-11-05T03:55:32.727Z,7.63
2022-11-05T03:58:36.469Z,6.88
2022-11-05T04:01:40.255Z,8.32
2022-11-05T04:04:46.014Z,7.72
2022-11-05T04:08:13.912Z,7.45
2022-11-05T04:11:35.330Z,7.88
2022-11-05T04:14:39.627Z,8.00
2022-11-05T04:17:41.872Z,7.75
2022-11-05T04:21:02.807Z,7.38
2022-11-05T04:24:13.454Z,7.55
2022-11-05T04:27:15.639Z,6.85
2022-11-05T04:30:19.229Z,9.13
2022-11-05T04:33:21.702Z,7.55
2022-11-05T04:36:23.861Z,7.32
2022-11-05T04:39:26.051Z,7.20
2022-11-05T04:42:28.474Z,8.35
2022-11-05T04:45:35.962Z,7.90
2022-11-05T04:48:38.050Z,8.68
2022-11-05T04:51:43.864Z,6.93
2022-11-05T04:54:46.159Z,7.03
2022-11-05T04:57:52.659Z,8.20
2022-11-05T05:00:54.901Z,7.93
2022-11-05T05:03:59.022Z,8.63
2022-11-05T05:07:02.409Z,7.45
2022-11-05T05:10:06.054Z,7.43
2022-11-05T05:13:10.692Z,7.28
2022-11-05T05:16:27.651Z,7.45
2022-11-05T05:19:30.173Z,7.20
2022-11-05T05:22:32.439Z,7.82
2022-11-05T05:25:35.318Z,6.60
2022-11-05T05:28:37.510Z,6.85
2022-11-05T05:31:40.203Z,7.32
2022-11-05T05:34:42.327Z,7.25
2022-11-05T05:37:44.514Z,7.80
2022-11-05T05:40:46.992Z,7.43
2022-11-05T05:43:49.123Z,7.13
2022-11-05T05:46:51.218Z,7.03
2022-11-05T05:49:53.562Z,7.28
2022-11-05T05:52:55.678Z,6.60
2022-11-05T05:55:58.563Z,6.43
2022-11-05T05:59:00.828Z,7.05
2022-11-05T06:02:03.460Z,7.15
2022-11-05T06:05:08.247Z,8.13
2022-11-05T06:08:13.334Z,8.02
2022-11-05T06:11:16.188Z,7.85
2022-11-05T06:14:18.368Z,8.02
2022-11-05T06:17:20.584Z,7.22
2022-11-05T06:20:24.060Z,7.65
2022-11-05T06:23:26.250Z,7.35
2022-11-05T06:26:28.768Z,7.13
2022-11-05T06:29:30.946Z,7.43
2022-11-05T06:32:34.141Z,7.18
2022-11-05T06:35:40.632Z,6.10
2022-11-05T06:38:45.843Z,8.23
2022-11-05T06:42:16.662Z,11.02
2022-11-05T06:45:13.594Z,10.20
2022-11-05T06:48:16.530Z,7.82
2022-11-05T06:51:21.798Z,8.70
2022-11-05T06:54:28.440Z,8.23
2022-11-05T06:57:30.824Z,7.53
2022-11-05T07:01:03.066Z,6.50
2022-11-05T07:04:08.214Z,7.95
2022-11-05T07:07:10.588Z,7.90
2022-11-05T07:10:20.441Z,7.68
2022-11-05T07:13:22.601Z,8.43
2022-11-05T07:16:31.856Z,8.23
2022-11-05T07:19:33.923Z,6.78
2022-11-05T07:22:36.612Z,8.00
2022-11-05T07:25:39.237Z,9.82
2022-11-05T07:28:51.966Z,7.70
2022-11-05T07:34:59.245Z,8.40
2022-11-05T07:38:08.852Z,7.93
2022-11-05T07:41:10.843Z,7.82
2022-11-05T07:44:14.495Z,8.45
2022-11-05T07:47:16.764Z,7.55
2022-11-05T07:50:26.564Z,7.90
2022-11-05T07:53:28.675Z,7.47
2022-11-05T07:56:33.455Z,8.80
2022-11-05T07:59:36.783Z,8.40
2022-11-05T08:02:40.235Z,9.43
2022-11-05T08:05:46.089Z,8.00
2022-11-05T08:08:48.253Z,7.50
2022-11-05T08:11:52.907Z,6.75
2022-11-05T08:14:58.719Z,8.40
2022-11-05T08:18:11.791Z,7.43
2022-11-05T08:21:14.052Z,8.23
2022-11-05T08:24:16.171Z,8.15
2022-11-05T08:27:18.267Z,9.48
2022-11-05T08:30:21.946Z,7.25
2022-11-05T08:33:27.731Z,7.03
2022-11-05T08:36:32.747Z,9.52
2022-11-05T08:39:34.892Z,9.27
2022-11-05T08:42:41.261Z,7.00
2022-11-05T08:45:43.456Z,7.53
2022-11-05T08:48:45.888Z,6.93
2022-11-05T08:51:48.131Z,6.25
2022-11-05T08:54:50.360Z,8.50
2022-11-05T08:58:00.618Z,8.23
2022-11-05T09:01:05.589Z,7.72
2022-11-05T09:04:10.495Z,6.60
2022-11-05T09:07:12.612Z,7.68
2022-11-05T09:10:14.869Z,6.00
2022-11-05T09:13:23.873Z,7.32
2022-11-05T09:16:37.065Z,6.57
2022-11-05T09:19:40.014Z,5.97
2022-11-05T09:22:43.603Z,7.10
2022-11-05T09:25:46.308Z,5.20
2022-11-05T09:28:48.429Z,5.65
2022-11-05T09:31:50.405Z,6.38
2022-11-05T09:34:52.441Z,7.25
2022-11-05T09:37:59.750Z,5.97
2022-11-05T09:41:05.009Z,5.50
2022-11-05T09:44:20.995Z,5.10
2022-11-05T09:47:44.767Z,6.80
2022-11-05T09:50:46.900Z,5.45
2022-11-05T09:53:49.908Z,5.63
2022-11-05T09:57:43.656Z,6.10
2022-11-05T10:00:25.557Z,4.90
2022-11-05T10:03:30.196Z,4.30
2022-11-05T10:06:32.345Z,4.82
2022-11-05T10:09:45.386Z,4.85
2022-11-05T10:12:53.077Z,5.45
2022-11-05T10:16:02.752Z,4.40
2022-11-05T10:19:22.221Z,4.35
2022-11-05T10:22:25.417Z,6.70
2022-11-05T10:25:33.220Z,4.38
2022-11-05T10:28:36.073Z,4.25
2022-11-05T10:31:38.202Z,4.43
2022-11-05T10:34:44.085Z,4.90
2022-11-05T10:37:51.165Z,4.53
2022-11-05T10:41:15.619Z,4.68
2022-11-05T10:44:23.288Z,6.22
2022-11-05T10:48:01.361Z,5.73
2022-11-05T10:51:03.493Z,4.85
2022-11-05T10:54:38.347Z,4.72
2022-11-05T10:57:41.623Z,4.82
2022-11-05T11:04:41.242Z,4.43
2022-11-05T11:07:58.211Z,4.75
2022-11-05T11:11:07.848Z,3.67
2022-11-05T11:14:12.827Z,4.25
2022-11-05T11:17:32.536Z,5.43
2022-11-05T11:20:34.737Z,5.32
2022-11-05T11:23:39.347Z,7.32
2022-11-05T11:26:42.377Z,7.57
2022-11-05T11:29:56.766Z,5.25
2022-11-05T11:33:12.073Z,4.20
2022-11-05T11:36:26.506Z,4.65
2022-11-05T11:39:35.217Z,4.63
2022-11-05T11:42:41.054Z,4.40
2022-11-05T11:45:49.832Z,5.50
2022-11-05T11:48:51.932Z,4.25
2022-11-05T11:52:11.275Z,5.60
2022-11-05T11:55:18.654Z,3.55
2022-11-05T11:58:23.505Z,4.43
2022-11-05T12:01:59.568Z,6.00
2022-11-05T12:05:38.218Z,3.83
2022-11-05T12:09:13.153Z,6.28
2022-11-05T12:12:17.991Z,4.15
2022-11-05T12:15:57.952Z,3.85
2022-11-05T12:19:21.185Z,4.55
2022-11-05T12:22:31.294Z,6.00
2022-11-05T12:25:44.347Z,5.43
2022-11-05T12:29:18.318Z,6.10
2022-11-05T12:32:35.631Z,5.50
2022-11-05T12:36:05.196Z,4.53
2022-11-05T12:39:20.489Z,6.25
2022-11-05T12:42:28.536Z,4.75
2022-11-05T12:45:43.486Z,5.35
2022-11-05T12:49:09.235Z,5.03
2022-11-05T12:52:50.262Z,5.25
2022-11-05T12:55:59.591Z,5.50
2022-11-05T12:59:30.348Z,3.50
2022-11-05T13:02:38.544Z,4.95
2022-11-05T13:05:47.310Z,4.72
2022-11-05T13:09:07.470Z,4.75
2022-11-05T13:12:16.919Z,4.78
2022-11-05T13:15:44.042Z,4.00
2022-11-05T13:19:05.761Z,4.75
2022-11-05T13:22:46.313Z,3.78
2022-11-05T13:26:26.385Z,4.72
2022-11-05T13:34:24.855Z,3.33
2022-11-05T13:37:50.315Z,2.92
2022-11-05T13:41:20.758Z,3.28
2022-11-05T13:44:48.501Z,3.30
2022-11-05T13:48:25.362Z,3.35
2022-11-05T13:51:48.575Z,3.22
2022-11-05T13:55:17.202Z,3.53
2022-11-05T13:59:05.221Z,3.47
2022-11-05T14:02:22.194Z,3.67
2022-11-05T14:05:39.909Z,2.28
2022-11-05T14:13:34.171Z,3.00
2022-11-05T14:17:15.099Z,3.40
2022-11-05T14:20:32.602Z,2.38
2022-11-05T14:23:40.730Z,2.70
2022-11-05T14:27:08.322Z,2.72
2022-11-05T14:30:47.607Z,3.65
2022-11-05T14:34:12.822Z,2.73
2022-11-05T14:37:37.816Z,2.58
2022-11-05T14:40:42.942Z,3.13
2022-11-05T14:44:09.131Z,2.75
2022-11-05T14:47:24.197Z,3.45
2022-11-05T14:50:43.017Z,3.22
2022-11-05T14:53:47.861Z,3.03
2022-11-05T14:57:02.672Z,3.55
2022-11-05T15:00:25.654Z,2.72
2022-11-05T15:03:45.342Z,3.10
2022-11-05T15:07:05.999Z,3.35
2022-11-05T15:10:18.413Z,3.15
2022-11-05T15:14:34.772Z,3.95
2022-11-05T15:21:17.626Z,4.05
2022-11-05T15:28:09.904Z,3.17
2022-11-05T15:31:36.607Z,5.05
2022-11-05T15:34:52.831Z,1.80
2022-11-05T15:38:34.760Z,3.40
2022-11-05T15:41:36.855Z,2.33
2022-11-05T15:44:41.147Z,2.65
2022-11-05T15:47:46.568Z,2.30
2022-11-05T15:50:55.385Z,1.80
2022-11-05T15:54:29.158Z,1.70
2022-11-05T15:57:40.466Z,2.13
2022-11-05T16:04:20.041Z,2.22
2022-11-05T16:07:25.953Z,1.65
2022-11-05T16:10:33.892Z,2.28
2022-11-05T16:13:45.961Z,2.67
2022-11-05T16:16:48.288Z,2.03
2022-11-05T16:19:51.096Z,3.42
2022-11-05T16:22:56.120Z,2.15
2022-11-05T16:25:59.006Z,2.40
2022-11-05T16:29:10.542Z,1.35
2022-11-05T16:32:19.381Z,1.75
2022-11-05T16:35:28.153Z,1.42
2022-11-05T16:38:30.274Z,2.33
2022-11-05T16:41:32.610Z,2.22
2022-11-05T16:44:37.779Z,2.95
2022-11-05T16:47:39.895Z,2.60
2022-11-05T16:50:42.701Z,2.00
2022-11-05T16:53:44.854Z,2.85
2022-11-05T16:56:50.412Z,2.53
2022-11-05T16:59:54.253Z,2.17
2022-11-05T17:02:56.598Z,2.08
2022-11-05T17:05:58.817Z,1.50
2022-11-05T17:09:00.978Z,0.70
2022-11-05T17:12:03.490Z,1.58
2022-11-05T17:15:26.619Z,1.77
2022-11-05T17:18:28.600Z,1.35
2022-11-05T17:21:30.633Z,1.50
2022-11-05T17:24:32.856Z,1.80
2022-11-05T17:27:34.915Z,2.88
2022-11-05T17:30:41.147Z,2.33
2022-11-05T17:33:44.331Z,3.38
2022-11-05T17:36:46.354Z,3.22
2022-11-05T17:39:48.425Z,1.73
2022-11-05T17:42:51.716Z,1.88
2022-11-05T17:45:53.719Z,2.47
2022-11-05T17:48:55.772Z,2.17
2022-11-05T17:51:57.752Z,3.08
2022-11-05T17:54:59.747Z,1.17
2022-11-05T17:58:14.934Z,2.53
2022-11-05T18:01:43.657Z,1.70
2022-11-05T18:04:50.933Z,1.75
2022-11-05T18:07:53.313Z,2.17
2022-11-05T18:10:57.218Z,1.42
2022-11-05T18:14:01.575Z,1.48
2022-11-05T18:17:09.495Z,1.77
2022-11-05T18:21:02.730Z,1.90
2022-11-05T18:24:08.712Z,1.20
2022-11-05T18:27:20.317Z,1.70
2022-11-05T18:30:51.171Z,1.63
2022-11-05T18:38:01.556Z,1.48
2022-11-05T18:45:15.918Z,1.95
2022-11-05T18:48:19.107Z,2.03
2022-11-05T18:51:22.979Z,1.83
2022-11-05T18:54:25.405Z,1.85
2022-11-05T18:57:48.000Z,1.63
2022-11-05T19:00:52.036Z,2.65
2022-11-05T19:04:22.630Z,3.25
2022-11-05T19:07:37.232Z,2.38
2022-11-05T19:11:49.789Z,2.75
2022-11-05T19:14:57.936Z,2.58
2022-11-05T19:18:05.744Z,3.33
2022-11-05T19:21:18.702Z,2.95
2022-11-05T19:24:32.735Z,7.60
2022-11-05T19:27:58.381Z,2.70
2022-11-05T19:31:00.663Z,2.53
2022-11-05T19:34:05.666Z,2.22
2022-11-05T19:37:41.546Z,2.25
2022-11-05T19:40:43.799Z,3.05
2022-11-05T19:43:46.557Z,1.90
2022-11-05T19:46:48.643Z,2.03
2022-11-05T19:49:50.705Z,2.63
2022-11-05T19:52:52.781Z,2.70
2022-11-05T19:56:02.580Z,1.92
2022-11-05T20:00:40.880Z,2.80
2022-11-05T20:04:14.833Z,3.15
2022-11-05T20:07:21.475Z,2.22
2022-11-05T20:10:30.151Z,2.35
2022-11-05T20:13:33.342Z,2.50
2022-11-05T20:16:41.560Z,2.85
2022-11-05T20:24:24.355Z,3.92
2022-11-05T20:27:35.520Z,2.92
2022-11-05T20:34:45.574Z,3.50
2022-11-05T20:37:54.081Z,2.55
2022-11-05T20:41:22.071Z,3.38
2022-11-05T20:44:24.779Z,2.50
2022-11-05T20:47:28.071Z,3.20
2022-11-05T20:50:31.183Z,3.00
2022-11-05T20:56:57.271Z,3.72
2022-11-05T21:03:02.088Z,4.38
2022-11-05T21:06:09.115Z,3.05
2022-11-05T21:09:11.465Z,3.85
2022-11-05T21:13:30.535Z,5.57
2022-11-05T21:16:35.622Z,3.10
2022-11-05T21:19:40.425Z,2.88
2022-11-05T21:22:46.188Z,3.10
2022-11-05T21:25:51.918Z,3.28
2022-11-05T21:28:53.899Z,3.58
2022-11-05T21:32:00.939Z,4.00
2022-11-05T21:35:06.878Z,3.28
2022-11-05T21:38:08.889Z,3.42
2022-11-05T21:41:17.434Z,2.88
2022-11-05T21:44:25.147Z,1.80
2022-11-05T21:51:00.223Z,2.70
2022-11-05T21:54:22.510Z,2.75
2022-11-05T21:57:44.030Z,2.70
2022-11-05T22:00:46.075Z,2.55
2022-11-05T22:03:48.060Z,2.97
2022-11-05T22:06:50.028Z,3.15
2022-11-05T22:09:52.545Z,2.65
2022-11-05T22:12:54.768Z,2.95
2022-11-05T22:15:57.253Z,1.98
2022-11-05T22:18:59.981Z,2.78
2022-11-05T22:22:02.485Z,2.72
2022-11-05T22:25:04.889Z,2.63
2022-11-05T22:28:07.071Z,3.00
2022-11-05T22:31:13.989Z,2.63
2022-11-05T22:34:16.112Z,2.05
2022-11-05T22:37:18.252Z,2.10
2022-11-05T22:40:23.707Z,2.17
2022-11-05T22:43:26.267Z,2.00
2022-11-05T22:46:28.407Z,1.83
2022-11-05T22:49:33.633Z,1.67
2022-11-05T22:52:36.383Z,1.75
2022-11-05T22:55:41.500Z,1.95
2022-11-05T22:58:43.882Z,1.40
2022-11-05T23:01:46.936Z,2.08
2022-11-05T23:04:51.680Z,2.17
2022-11-05T23:08:12.443Z,2.53
2022-11-05T23:11:38.935Z,1.80
2022-11-05T23:14:40.927Z,2.10
2022-11-05T23:18:01.601Z,2.40
2022-11-05T23:21:23.324Z,1.50
2022-11-05T23:24:25.421Z,1.92
2022-11-05T23:27:33.939Z,1.63
2022-11-05T23:33:39.127Z,1.30
2022-11-05T23:36:59.383Z,1.75
2022-11-05T23:40:01.606Z,1.30
2022-11-05T23:43:22.490Z,1.30
2022-11-05T23:46:43.139Z,2.13
2022-11-05T23:49:45.153Z,1.88
2022-11-05T23:52:47.176Z,1.45
2022-11-05T23:55:49.862Z,1.95
2022-11-05T23:58:51.984Z,1.58
